createdAt,value
2022-10-05T00:00:27.511Z,13.10
2022-10-05T00:01:27.521Z,13.20
2022-10-05T00:02:27.497Z,13.60
2022-10-05T00:03:27.482Z,14.30
2022-10-05T00:04:27.467Z,11.10
2022-10-05T00:05:28.461Z,15.80
2022-10-05T00:06:27.454Z,16.80
2022-10-05T00:07:27.451Z,17.20
2022-10-05T00:08:27.425Z,14.20
2022-10-05T00:09:27.458Z,19.00
2022-10-05T00:10:27.404Z,13.30
2022-10-05T00:11:27.395Z,13.60
2022-10-05T00:12:27.454Z,21.70
2022-10-05T00:13:27.370Z,15.50
2022-10-05T00:14:27.376Z,11.80
2022-10-05T00:15:27.349Z,17.30
2022-10-05T00:16:27.393Z,16.40
2022-10-05T00:17:27.345Z,18.30
2022-10-05T00:18:27.318Z,21.00
2022-10-05T00:19:27.311Z,14.90
2022-10-05T00:20:27.300Z,15.40
2022-10-05T00:21:27.287Z,17.70
2022-10-05T00:22:27.288Z,15.40
2022-10-05T00:23:27.265Z,17.50
2022-10-05T00:24:27.260Z,16.40
2022-10-05T00:25:27.259Z,18.10
2022-10-05T00:26:27.239Z,19.70
2022-10-05T00:27:27.236Z,12.90
2022-10-05T00:28:27.274Z,14.40
2022-10-05T00:29:27.204Z,19.90
2022-10-05T00:30:27.193Z,16.00
2022-10-05T00:31:27.319Z,20.70
2022-10-05T00:32:27.182Z,18.50
2022-10-05T00:33:27.215Z,16.60
2022-10-05T00:34:27.157Z,16.60
2022-10-05T00:35:27.139Z,16.40
2022-10-05T00:36:27.132Z,16.20
2022-10-05T00:37:27.136Z,20.20
2022-10-05T00:38:27.116Z,24.40
2022-10-05T00:39:27.098Z,21.80
2022-10-05T00:40:27.085Z,17.90
2022-10-05T00:41:27.080Z,17.40
2022-10-05T00:42:27.082Z,17.60
2022-10-05T00:43:27.060Z,21.70
2022-10-05T00:44:27.045Z,15.50
2022-10-05T00:45:27.062Z,16.70
2022-10-05T00:46:27.045Z,17.80
2022-10-05T00:47:28.020Z,17.50
2022-10-05T00:48:26.998Z,15.90
2022-10-05T00:49:27.009Z,20.90
2022-10-05T00:50:26.977Z,20.30
2022-10-05T00:51:26.972Z,18.60
2022-10-05T00:52:26.968Z,19.90
2022-10-05T00:53:26.945Z,27.50
2022-10-05T00:54:26.933Z,18.10
2022-10-05T00:55:26.922Z,21.70
2022-10-05T00:56:26.908Z,20.80
2022-10-05T00:57:26.907Z,20.00
2022-10-05T00:58:26.891Z,20.00
2022-10-05T00:59:26.882Z,20.80
2022-10-05T01:00:26.872Z,22.20
2022-10-05T01:01:26.908Z,19.80
2022-10-05T01:02:26.950Z,20.50
2022-10-05T01:03:26.841Z,18.90
2022-10-05T01:04:26.825Z,16.60
2022-10-05T01:05:26.820Z,20.10
2022-10-05T01:06:26.809Z,21.40
2022-10-05T01:07:26.814Z,20.40
2022-10-05T01:08:26.794Z,16.60
2022-10-05T01:09:26.798Z,21.30
2022-10-05T01:10:26.771Z,21.90
2022-10-05T01:11:26.760Z,21.20
2022-10-05T01:12:26.766Z,23.70
2022-10-05T01:13:26.734Z,21.30
2022-10-05T01:14:26.726Z,24.90
2022-10-05T01:15:26.707Z,17.30
2022-10-05T01:16:27.771Z,19.90
2022-10-05T01:17:26.716Z,21.90
2022-10-05T01:18:26.687Z,19.80
2022-10-05T01:19:26.694Z,23.80
2022-10-05T01:20:26.668Z,23.90
2022-10-05T01:21:26.655Z,23.60
2022-10-05T01:22:26.642Z,25.00
2022-10-05T01:23:26.653Z,19.90
2022-10-05T01:24:26.645Z,18.10
2022-10-05T01:25:26.623Z,25.30
2022-10-05T01:26:26.600Z,24.20
2022-10-05T01:27:26.596Z,19.00
2022-10-05T01:28:26.669Z,25.10
2022-10-05T01:29:26.568Z,20.80
2022-10-05T01:30:26.569Z,19.20
2022-10-05T01:31:26.577Z,24.50
2022-10-05T01:32:26.548Z,23.10
2022-10-05T01:33:26.547Z,25.40
2022-10-05T01:34:26.522Z,19.30
2022-10-05T01:35:26.520Z,18.70
2022-10-05T01:36:26.539Z,19.10
2022-10-05T01:37:26.502Z,23.50
2022-10-05T01:38:26.482Z,22.40
2022-10-05T01:39:26.476Z,22.10
2022-10-05T01:40:26.461Z,20.70
2022-10-05T01:41:26.473Z,18.80
2022-10-05T01:42:26.459Z,19.90
2022-10-05T01:43:26.430Z,24.50
2022-10-05T01:44:26.441Z,21.10
2022-10-05T01:45:26.583Z,23.40
2022-10-05T01:46:26.430Z,25.00
2022-10-05T01:47:26.410Z,23.40
2022-10-05T01:48:26.409Z,21.80
2022-10-05T01:49:26.393Z,20.50
2022-10-05T01:50:26.356Z,22.40
2022-10-05T01:51:26.448Z,21.60
2022-10-05T01:52:26.346Z,26.60
2022-10-05T01:53:26.324Z,26.80
2022-10-05T01:54:26.348Z,22.40
2022-10-05T01:55:26.338Z,23.30
2022-10-05T01:56:26.302Z,21.30
2022-10-05T01:57:26.337Z,18.70
2022-10-05T01:58:26.277Z,20.50
2022-10-05T01:59:26.259Z,22.10
2022-10-05T02:00:26.256Z,20.40
2022-10-05T02:01:26.325Z,21.90
2022-10-05T02:02:26.297Z,21.70
2022-10-05T02:03:26.213Z,21.90
2022-10-05T02:04:59.858Z,26.90
2022-10-05T02:05:28.198Z,25.70
2022-10-05T02:06:26.192Z,26.80
2022-10-05T02:07:26.200Z,24.10
2022-10-05T02:08:26.174Z,23.00
2022-10-05T02:09:26.165Z,26.00
2022-10-05T02:10:26.151Z,28.60
2022-10-05T02:11:26.145Z,24.90
2022-10-05T02:12:26.148Z,23.00
2022-10-05T02:13:26.150Z,24.90
2022-10-05T02:14:26.113Z,26.80
2022-10-05T02:15:26.102Z,23.80
2022-10-05T02:16:26.139Z,24.40
2022-10-05T02:17:26.095Z,28.40
2022-10-05T02:18:26.081Z,26.30
2022-10-05T02:19:26.060Z,25.10
2022-10-05T02:20:26.065Z,25.70
2022-10-05T02:21:26.042Z,26.50
2022-10-05T02:22:26.029Z,32.20
2022-10-05T02:23:26.086Z,31.80
2022-10-05T02:24:26.012Z,29.90
2022-10-05T02:25:26.000Z,26.40
2022-10-05T02:26:25.990Z,25.60
2022-10-05T02:27:25.974Z,32.50
2022-10-05T02:28:26.015Z,26.20
2022-10-05T02:29:25.959Z,30.20
2022-10-05T02:30:25.960Z,35.20
2022-10-05T02:31:26.014Z,34.00
2022-10-05T02:32:25.933Z,34.90
2022-10-05T02:33:25.929Z,27.40
2022-10-05T02:34:25.904Z,27.60
2022-10-05T02:35:25.901Z,29.20
2022-10-05T02:36:25.889Z,40.10
2022-10-05T02:37:25.907Z,28.80
2022-10-05T02:38:26.063Z,32.50
2022-10-05T02:39:25.853Z,36.30
2022-10-05T02:40:25.841Z,34.90
2022-10-05T02:41:25.834Z,33.30
2022-10-05T02:42:25.826Z,31.20
2022-10-05T02:43:25.831Z,29.40
2022-10-05T02:44:25.806Z,38.00
2022-10-05T02:45:25.818Z,33.00
2022-10-05T02:46:26.846Z,34.80
2022-10-05T02:47:25.779Z,33.10
2022-10-05T02:48:25.787Z,33.10
2022-10-05T02:49:25.757Z,32.70
2022-10-05T02:50:25.741Z,31.40
2022-10-05T02:51:25.739Z,28.40
2022-10-05T02:52:25.726Z,33.20
2022-10-05T02:53:25.730Z,31.60
2022-10-05T02:54:25.708Z,31.40
2022-10-05T02:55:25.691Z,31.50
2022-10-05T02:56:25.681Z,35.20
2022-10-05T02:57:25.672Z,38.60
2022-10-05T02:58:25.685Z,37.50
2022-10-05T02:59:25.667Z,31.40
2022-10-05T03:00:25.641Z,32.70
2022-10-05T03:01:25.686Z,31.70
2022-10-05T03:02:25.807Z,36.20
2022-10-05T03:03:25.617Z,31.60
2022-10-05T03:04:25.596Z,35.00
2022-10-05T03:05:25.586Z,36.70
2022-10-05T03:06:25.579Z,44.60
2022-10-05T03:07:25.566Z,35.80
2022-10-05T03:08:25.567Z,36.30
2022-10-05T03:09:25.543Z,36.50
2022-10-05T03:10:25.536Z,37.10
2022-10-05T03:11:25.525Z,32.40
2022-10-05T03:12:25.549Z,35.10
2022-10-05T03:13:25.514Z,31.90
2022-10-05T03:14:25.490Z,29.80
2022-10-05T03:15:25.491Z,34.50
2022-10-05T03:16:25.557Z,33.00
2022-10-05T03:17:25.478Z,29.40
2022-10-05T03:18:29.936Z,34.40
2022-10-05T03:19:27.447Z,31.40
2022-10-05T03:20:25.439Z,33.80
2022-10-05T03:21:25.432Z,34.80
2022-10-05T03:22:25.422Z,28.90
2022-10-05T03:23:25.418Z,29.20
2022-10-05T03:24:25.398Z,34.10
2022-10-05T03:25:25.388Z,34.20
2022-10-05T03:26:25.377Z,32.10
2022-10-05T03:27:25.365Z,36.80
2022-10-05T03:28:25.470Z,34.70
2022-10-05T03:29:25.355Z,32.60
2022-10-05T03:30:25.334Z,37.80
2022-10-05T03:31:25.368Z,33.40
2022-10-05T03:32:25.312Z,34.50
2022-10-05T03:33:25.318Z,41.50
2022-10-05T03:34:25.288Z,34.50
2022-10-05T03:35:25.325Z,36.10
2022-10-05T03:36:25.269Z,38.40
2022-10-05T03:37:25.258Z,32.10
2022-10-05T03:38:25.268Z,37.60
2022-10-05T03:39:25.242Z,40.70
2022-10-05T03:40:25.229Z,41.90
2022-10-05T03:41:25.222Z,33.20
2022-10-05T03:42:25.212Z,36.60
2022-10-05T03:43:25.215Z,41.70
2022-10-05T03:44:25.194Z,42.70
2022-10-05T03:45:25.181Z,38.70
2022-10-05T03:46:25.182Z,36.80
2022-10-05T03:47:25.162Z,37.10
2022-10-05T03:48:25.166Z,49.80
2022-10-05T03:49:25.143Z,36.90
2022-10-05T03:50:25.129Z,40.20
2022-10-05T03:51:25.119Z,39.00
2022-10-05T03:52:25.116Z,48.60
2022-10-05T03:53:25.116Z,39.80
2022-10-05T03:54:25.089Z,39.00
2022-10-05T03:55:25.088Z,48.00
2022-10-05T03:56:25.074Z,43.10
2022-10-05T03:57:25.060Z,44.30
2022-10-05T03:58:25.171Z,47.20
2022-10-05T03:59:28.813Z,45.30
2022-10-05T04:00:26.023Z,46.10
2022-10-05T04:01:25.069Z,44.40
2022-10-05T04:02:25.046Z,44.30
2022-10-05T04:03:25.005Z,44.00
2022-10-05T04:04:24.990Z,44.60
2022-10-05T04:05:24.979Z,47.30
2022-10-05T04:06:25.016Z,42.90
2022-10-05T04:07:24.961Z,46.30
2022-10-05T04:08:24.960Z,43.90
2022-10-05T04:09:24.934Z,51.70
2022-10-05T04:10:24.929Z,55.10
2022-10-05T04:11:24.914Z,40.80
2022-10-05T04:12:24.908Z,47.20
2022-10-05T04:13:24.917Z,42.40
2022-10-05T04:14:24.898Z,50.70
2022-10-05T04:15:24.881Z,43.70
2022-10-05T04:16:24.908Z,45.20
2022-10-05T04:17:24.862Z,46.70
2022-10-05T04:18:24.865Z,45.10
2022-10-05T04:19:24.842Z,46.10
2022-10-05T04:20:24.836Z,43.70
2022-10-05T04:21:24.842Z,41.90
2022-10-05T04:22:24.821Z,39.60
2022-10-05T04:23:24.813Z,50.80
2022-10-05T04:24:24.793Z,44.20
2022-10-05T04:25:24.781Z,48.80
2022-10-05T04:26:24.774Z,43.60
2022-10-05T04:27:24.765Z,55.10
2022-10-05T04:28:28.295Z,43.70
2022-10-05T04:29:26.744Z,49.30
2022-10-05T04:30:24.732Z,50.20
2022-10-05T04:31:24.770Z,50.50
2022-10-05T04:32:24.713Z,49.90
2022-10-05T04:33:24.712Z,48.30
2022-10-05T04:34:24.695Z,46.70
2022-10-05T04:35:24.685Z,47.40
2022-10-05T04:36:24.669Z,48.00
2022-10-05T04:37:24.675Z,48.20
2022-10-05T04:38:24.664Z,52.00
2022-10-05T04:39:24.638Z,45.50
2022-10-05T04:40:24.636Z,52.10
2022-10-05T04:41:24.646Z,52.40
2022-10-05T04:42:24.610Z,55.40
2022-10-05T04:43:24.614Z,47.90
2022-10-05T04:44:24.587Z,49.20
2022-10-05T04:45:24.588Z,52.10
2022-10-05T04:46:24.616Z,50.20
2022-10-05T04:47:24.564Z,49.40
2022-10-05T04:48:24.566Z,51.90
2022-10-05T04:49:24.565Z,55.50
2022-10-05T04:50:24.535Z,52.10
2022-10-05T04:51:24.525Z,51.30
2022-10-05T04:52:24.521Z,51.70
2022-10-05T04:53:24.557Z,50.10
2022-10-05T04:54:24.501Z,52.60
2022-10-05T04:55:24.490Z,51.30
2022-10-05T04:56:24.473Z,48.50
2022-10-05T04:57:24.464Z,52.50
2022-10-05T04:58:24.473Z,58.00
2022-10-05T04:59:24.478Z,49.10
2022-10-05T05:00:24.442Z,53.90
2022-10-05T05:01:24.504Z,52.30
2022-10-05T05:02:24.427Z,51.50
2022-10-05T05:03:24.489Z,52.70
2022-10-05T05:04:24.402Z,54.70
2022-10-05T05:05:24.391Z,55.10
2022-10-05T05:06:24.382Z,54.30
2022-10-05T05:07:24.373Z,55.00
2022-10-05T05:08:24.376Z,48.10
2022-10-05T05:09:24.352Z,48.80
2022-10-05T05:10:24.343Z,56.50
2022-10-05T05:11:24.783Z,60.30
2022-10-05T05:12:25.319Z,54.00
2022-10-05T05:13:24.338Z,58.50
2022-10-05T05:14:24.304Z,57.60
2022-10-05T05:15:24.293Z,58.90
2022-10-05T05:16:24.346Z,63.30
2022-10-05T05:17:25.274Z,62.30
2022-10-05T05:18:24.275Z,67.20
2022-10-05T05:19:24.252Z,61.40
2022-10-05T05:20:24.280Z,61.80
2022-10-05T05:21:24.229Z,63.20
2022-10-05T05:22:24.215Z,59.10
2022-10-05T05:23:25.223Z,58.70
2022-10-05T05:24:24.210Z,56.80
2022-10-05T05:25:24.184Z,61.70
2022-10-05T05:26:25.184Z,66.80
2022-10-05T05:27:24.173Z,61.70
2022-10-05T05:28:24.254Z,58.60
2022-10-05T05:29:24.195Z,66.20
2022-10-05T05:30:24.142Z,60.30
2022-10-05T05:31:24.285Z,64.30
2022-10-05T05:32:24.138Z,73.60
2022-10-05T05:33:24.115Z,74.30
2022-10-05T05:34:24.100Z,66.00
2022-10-05T05:35:24.089Z,65.20
2022-10-05T05:36:24.084Z,67.40
2022-10-05T05:37:24.091Z,65.60
2022-10-05T05:38:24.064Z,61.00
2022-10-05T05:39:24.054Z,64.10
2022-10-05T05:40:24.042Z,65.30
2022-10-05T05:41:24.034Z,73.80
2022-10-05T05:42:24.019Z,67.10
2022-10-05T05:43:24.015Z,80.30
2022-10-05T05:44:24.000Z,76.50
2022-10-05T05:45:23.991Z,82.60
2022-10-05T05:46:38.776Z,77.20
2022-10-05T05:47:26.002Z,82.00
2022-10-05T05:48:23.971Z,81.30
2022-10-05T05:49:23.953Z,80.40
2022-10-05T05:50:23.942Z,80.90
2022-10-05T05:51:23.964Z,76.20
2022-10-05T05:52:23.925Z,80.40
2022-10-05T05:53:23.912Z,85.70
2022-10-05T05:54:24.902Z,77.30
2022-10-05T05:55:29.021Z,93.00
2022-10-05T05:56:25.888Z,81.40
2022-10-05T05:57:23.873Z,81.40
2022-10-05T05:58:23.874Z,85.80
2022-10-05T05:59:23.853Z,81.70
2022-10-05T06:00:23.847Z,78.50
2022-10-05T06:01:32.788Z,80.30
2022-10-05T06:02:25.888Z,84.80
2022-10-05T06:03:23.973Z,82.70
2022-10-05T06:04:23.800Z,86.90
2022-10-05T06:05:23.794Z,85.50
2022-10-05T06:06:23.784Z,81.40
2022-10-05T06:07:28.046Z,79.30
2022-10-05T06:08:25.780Z,88.00
2022-10-05T06:09:23.759Z,92.70
2022-10-05T06:10:23.744Z,90.50
2022-10-05T06:11:23.771Z,97.10
2022-10-05T06:12:23.722Z,97.50
2022-10-05T06:13:23.727Z,101.80
2022-10-05T06:14:23.701Z,91.40
2022-10-05T06:15:23.695Z,102.50
2022-10-05T06:16:23.708Z,97.40
2022-10-05T06:17:23.675Z,99.10
2022-10-05T06:18:23.674Z,100.50
2022-10-05T06:19:23.652Z,99.70
2022-10-05T06:20:23.637Z,106.50
2022-10-05T06:21:23.633Z,101.20
2022-10-05T06:22:23.631Z,104.80
2022-10-05T06:23:23.622Z,107.00
2022-10-05T06:24:23.628Z,103.60
2022-10-05T06:25:23.645Z,115.20
2022-10-05T06:26:23.589Z,104.60
2022-10-05T06:27:23.566Z,114.10
2022-10-05T06:28:23.665Z,118.50
2022-10-05T06:29:23.660Z,109.80
2022-10-05T06:30:23.537Z,111.50
2022-10-05T06:31:23.566Z,117.00
2022-10-05T06:32:23.527Z,118.30
2022-10-05T06:33:23.526Z,110.20
2022-10-05T06:34:23.501Z,106.80
2022-10-05T06:35:23.530Z,98.30
2022-10-05T06:36:23.479Z,104.60
2022-10-05T06:37:23.513Z,101.00
2022-10-05T06:38:23.487Z,110.00
2022-10-05T06:39:23.453Z,104.30
2022-10-05T06:40:23.442Z,106.50
2022-10-05T06:41:23.434Z,104.00
2022-10-05T06:42:23.420Z,101.90
2022-10-05T06:43:24.705Z,98.40
2022-10-05T06:44:23.403Z,93.50
2022-10-05T06:45:23.388Z,101.80
2022-10-05T06:46:23.416Z,104.30
2022-10-05T06:47:23.364Z,96.80
2022-10-05T06:48:23.374Z,89.60
2022-10-05T06:49:23.347Z,98.70
2022-10-05T06:50:23.339Z,100.30
2022-10-05T06:51:23.362Z,96.40
2022-10-05T06:52:23.320Z,97.10
2022-10-05T06:53:23.314Z,99.70
2022-10-05T06:54:24.294Z,91.40
2022-10-05T06:55:23.279Z,95.30
2022-10-05T06:56:23.279Z,94.80
2022-10-05T06:57:23.276Z,92.70
2022-10-05T06:58:23.265Z,90.80
2022-10-05T06:59:23.246Z,90.00
2022-10-05T07:00:23.231Z,85.10
2022-10-05T07:01:23.263Z,85.90
2022-10-05T07:02:23.262Z,78.40
2022-10-05T07:03:23.222Z,77.30
2022-10-05T07:04:23.193Z,84.60
2022-10-05T07:05:23.172Z,79.70
2022-10-05T07:06:24.169Z,78.70
2022-10-05T07:07:23.166Z,74.70
2022-10-05T07:08:23.161Z,78.40
2022-10-05T07:09:23.143Z,78.80
2022-10-05T07:10:23.128Z,79.80
2022-10-05T07:11:23.230Z,79.40
2022-10-05T07:12:23.107Z,76.60
2022-10-05T07:13:23.117Z,77.20
2022-10-05T07:14:23.128Z,77.90
2022-10-05T07:15:23.084Z,82.10
2022-10-05T07:16:23.088Z,74.80
2022-10-05T07:17:24.067Z,77.20
2022-10-05T07:18:23.179Z,83.90
2022-10-05T07:19:23.039Z,74.70
2022-10-05T07:20:23.033Z,79.50
2022-10-05T07:21:23.011Z,79.40
2022-10-05T07:22:23.004Z,83.10
2022-10-05T07:23:23.001Z,83.00
2022-10-05T07:24:22.984Z,84.20
2022-10-05T07:25:22.976Z,83.90
2022-10-05T07:26:22.966Z,87.70
2022-10-05T07:27:22.966Z,85.50
2022-10-05T07:28:23.085Z,83.30
2022-10-05T07:29:22.928Z,82.60
2022-10-05T07:30:22.913Z,78.60
2022-10-05T07:31:22.986Z,83.90
2022-10-05T07:32:22.897Z,80.70
2022-10-05T07:33:22.897Z,83.90
2022-10-05T07:34:22.870Z,82.40
2022-10-05T07:35:22.871Z,78.20
2022-10-05T07:36:22.855Z,77.60
2022-10-05T07:37:22.844Z,79.60
2022-10-05T07:38:22.847Z,72.70
2022-10-05T07:39:23.480Z,76.20
2022-10-05T07:40:23.809Z,73.00
2022-10-05T07:41:22.798Z,72.60
2022-10-05T07:42:22.793Z,73.40
2022-10-05T07:43:22.792Z,78.60
2022-10-05T07:44:22.772Z,77.90
2022-10-05T07:45:22.766Z,85.10
2022-10-05T07:46:22.861Z,68.80
2022-10-05T07:47:22.740Z,70.30
2022-10-05T07:48:22.746Z,70.80
2022-10-05T07:49:22.759Z,66.80
2022-10-05T07:50:22.781Z,64.40
2022-10-05T07:51:22.703Z,62.50
2022-10-05T07:52:22.700Z,64.80
2022-10-05T07:53:22.691Z,61.60
2022-10-05T07:54:22.695Z,62.90
2022-10-05T07:55:22.672Z,65.40
2022-10-05T07:56:22.652Z,64.60
2022-10-05T07:57:22.640Z,59.00
2022-10-05T07:58:22.633Z,52.00
2022-10-05T07:59:23.627Z,58.70
2022-10-05T08:00:22.816Z,60.10
2022-10-05T08:01:22.676Z,57.80
2022-10-05T08:02:22.723Z,52.90
2022-10-05T08:03:22.663Z,52.10
2022-10-05T08:04:22.570Z,63.20
2022-10-05T08:05:22.554Z,56.10
2022-10-05T08:06:22.543Z,58.70
2022-10-05T08:08:22.545Z,52.20
2022-10-05T08:09:22.531Z,48.20
2022-10-05T08:10:22.508Z,52.10
2022-10-05T08:11:22.492Z,50.40
2022-10-05T08:12:22.504Z,46.80
2022-10-05T08:13:22.486Z,53.00
2022-10-05T08:14:22.462Z,45.60
2022-10-05T08:15:22.460Z,48.60
2022-10-05T08:16:22.541Z,52.10
2022-10-05T08:17:25.578Z,52.90
2022-10-05T08:18:23.435Z,54.40
2022-10-05T08:19:22.409Z,46.40
2022-10-05T08:20:22.413Z,48.00
2022-10-05T08:21:22.388Z,45.40
2022-10-05T08:22:22.381Z,49.00
2022-10-05T08:23:22.379Z,46.20
2022-10-05T08:24:22.354Z,49.80
2022-10-05T08:25:22.344Z,46.90
2022-10-05T08:26:22.337Z,41.60
2022-10-05T08:27:22.327Z,45.00
2022-10-05T08:28:22.368Z,44.90
2022-10-05T08:29:22.308Z,43.70
2022-10-05T08:30:22.299Z,41.10
2022-10-05T08:31:22.413Z,40.90
2022-10-05T08:32:22.291Z,40.20
2022-10-05T08:33:22.277Z,41.60
2022-10-05T08:34:22.275Z,37.90
2022-10-05T08:35:22.245Z,41.40
2022-10-05T08:36:22.246Z,39.30
2022-10-05T08:37:22.261Z,40.10
2022-10-05T08:38:22.221Z,41.30
2022-10-05T08:39:22.205Z,42.30
2022-10-05T08:40:22.191Z,44.20
2022-10-05T08:41:22.178Z,43.70
2022-10-05T08:42:22.167Z,40.90
2022-10-05T08:43:22.166Z,42.60
2022-10-05T08:44:22.146Z,41.60
2022-10-05T08:45:22.135Z,40.00
2022-10-05T08:46:22.173Z,37.60
2022-10-05T08:47:22.110Z,33.70
2022-10-05T08:48:22.114Z,32.00
2022-10-05T08:49:22.088Z,30.70
2022-10-05T08:50:22.082Z,32.80
2022-10-05T08:51:22.068Z,29.80
2022-10-05T08:52:22.058Z,27.30
2022-10-05T08:53:22.074Z,28.30
2022-10-05T08:54:22.041Z,31.40
2022-10-05T08:55:22.029Z,28.70
2022-10-05T08:56:26.351Z,28.60
2022-10-05T08:57:24.028Z,27.70
2022-10-05T08:58:22.014Z,35.00
2022-10-05T08:59:21.992Z,26.10
2022-10-05T09:00:21.984Z,27.70
2022-10-05T09:01:22.074Z,29.30
2022-10-05T09:02:21.988Z,24.90
2022-10-05T09:03:22.960Z,27.00
2022-10-05T09:04:21.946Z,27.80
2022-10-05T09:05:21.929Z,27.80
2022-10-05T09:06:21.922Z,26.00
2022-10-05T09:07:21.927Z,29.10
2022-10-05T09:08:21.915Z,28.20
2022-10-05T09:09:21.883Z,26.50
2022-10-05T09:10:21.871Z,27.40
2022-10-05T09:11:21.900Z,27.80
2022-10-05T09:12:21.854Z,24.50
2022-10-05T09:13:21.918Z,26.80
2022-10-05T09:14:21.836Z,25.90
2022-10-05T09:15:27.161Z,26.10
2022-10-05T09:16:23.899Z,28.00
2022-10-05T09:17:21.808Z,26.90
2022-10-05T09:18:21.811Z,29.60
2022-10-05T09:19:21.783Z,27.10
2022-10-05T09:20:21.777Z,30.90
2022-10-05T09:21:22.769Z,29.00
2022-10-05T09:22:21.756Z,31.10
2022-10-05T09:23:21.753Z,31.60
2022-10-05T09:24:21.755Z,26.20
2022-10-05T09:25:21.724Z,29.70
2022-10-05T09:26:21.716Z,30.00
2022-10-05T09:27:22.706Z,27.90
2022-10-05T09:28:21.771Z,28.60
2022-10-05T09:29:21.678Z,31.50
2022-10-05T09:30:21.671Z,25.80
2022-10-05T09:31:21.709Z,32.00
2022-10-05T09:32:21.651Z,27.30
2022-10-05T09:33:21.648Z,29.00
2022-10-05T09:34:21.644Z,29.50
2022-10-05T09:35:21.728Z,27.80
2022-10-05T09:36:21.602Z,28.00
2022-10-05T09:37:21.596Z,28.10
2022-10-05T09:38:21.603Z,26.80
2022-10-05T09:39:21.577Z,30.10
2022-10-05T09:40:21.565Z,25.10
2022-10-05T09:41:21.565Z,24.80
2022-10-05T09:42:21.553Z,25.40
2022-10-05T09:43:21.551Z,28.10
2022-10-05T09:44:21.522Z,29.30
2022-10-05T09:45:21.747Z,29.80
2022-10-05T09:46:21.571Z,25.20
2022-10-05T09:47:21.490Z,26.20
2022-10-05T09:48:21.492Z,29.50
2022-10-05T09:49:21.471Z,27.10
2022-10-05T09:50:21.477Z,26.50
2022-10-05T09:51:21.470Z,23.40
2022-10-05T09:52:21.439Z,27.40
2022-10-05T09:53:21.450Z,27.10
2022-10-05T09:54:21.424Z,28.90
2022-10-05T09:55:21.414Z,24.20
2022-10-05T09:56:21.412Z,25.30
2022-10-05T09:57:21.397Z,23.70
2022-10-05T09:58:21.392Z,29.60
2022-10-05T09:59:21.372Z,25.40
2022-10-05T10:00:21.364Z,23.90
2022-10-05T10:01:33.157Z,26.90
2022-10-05T10:02:23.424Z,25.10
2022-10-05T10:03:21.446Z,27.60
2022-10-05T10:04:21.327Z,30.70
2022-10-05T10:05:21.312Z,27.70
2022-10-05T10:06:21.305Z,25.60
2022-10-05T10:07:21.303Z,20.90
2022-10-05T10:08:21.299Z,21.50
2022-10-05T10:09:21.273Z,25.80
2022-10-05T10:10:21.263Z,23.50
2022-10-05T10:11:21.256Z,25.70
2022-10-05T10:12:21.246Z,27.60
2022-10-05T10:13:21.243Z,26.10
2022-10-05T10:14:21.239Z,29.70
2022-10-05T10:15:22.209Z,22.40
2022-10-05T10:16:21.291Z,21.40
2022-10-05T10:17:21.190Z,21.90
2022-10-05T10:18:21.190Z,26.80
2022-10-05T10:19:21.172Z,24.70
2022-10-05T10:20:21.164Z,19.80
2022-10-05T10:21:21.148Z,19.10
2022-10-05T10:22:21.141Z,22.50
2022-10-05T10:23:21.145Z,20.10
2022-10-05T10:24:21.120Z,22.90
2022-10-05T10:25:21.107Z,19.10
2022-10-05T10:26:21.096Z,16.90
2022-10-05T10:27:21.090Z,15.50
2022-10-05T10:28:21.129Z,14.40
2022-10-05T10:29:21.129Z,20.40
2022-10-05T10:30:21.882Z,15.60
2022-10-05T10:31:21.109Z,15.20
2022-10-05T10:32:21.052Z,18.80
2022-10-05T10:33:21.039Z,13.40
2022-10-05T10:34:21.029Z,15.70
2022-10-05T10:35:21.046Z,12.00
2022-10-05T10:36:21.000Z,14.90
2022-10-05T10:37:21.003Z,12.80
2022-10-05T10:38:20.998Z,13.30
2022-10-05T10:39:21.034Z,13.00
2022-10-05T10:40:20.962Z,11.20
2022-10-05T10:41:20.953Z,10.70
2022-10-05T10:42:26.000Z,10.50
2022-10-05T10:43:22.937Z,13.20
2022-10-05T10:44:20.931Z,11.00
2022-10-05T10:45:20.905Z,10.70
2022-10-05T10:46:20.958Z,9.30
2022-10-05T10:47:20.886Z,11.40
2022-10-05T10:48:20.885Z,12.50
2022-10-05T10:49:20.865Z,8.60
2022-10-05T10:50:20.867Z,14.60
2022-10-05T10:51:20.843Z,8.00
2022-10-05T10:52:20.839Z,6.80
2022-10-05T10:53:20.832Z,12.60
2022-10-05T10:54:20.819Z,8.60
2022-10-05T10:55:20.877Z,8.10
2022-10-05T10:56:20.816Z,12.00
2022-10-05T10:57:20.793Z,10.10
2022-10-05T10:58:20.843Z,12.00
2022-10-05T10:59:20.764Z,10.70
2022-10-05T11:00:20.754Z,7.80
2022-10-05T11:01:20.812Z,7.90
2022-10-05T11:02:20.808Z,8.50
2022-10-05T11:03:20.734Z,9.60
2022-10-05T11:04:20.716Z,10.40
2022-10-05T11:05:20.706Z,8.00
2022-10-05T11:06:20.717Z,8.80
2022-10-05T11:07:20.707Z,11.80
2022-10-05T11:08:20.691Z,9.00
2022-10-05T11:09:20.671Z,9.00
2022-10-05T11:10:21.668Z,10.50
2022-10-05T11:11:20.665Z,16.40
2022-10-05T11:12:20.642Z,9.30
2022-10-05T11:13:20.647Z,9.80
2022-10-05T11:14:20.621Z,9.00
2022-10-05T11:15:20.613Z,10.00
2022-10-05T11:16:20.596Z,7.30
2022-10-05T11:17:20.605Z,9.30
2022-10-05T11:18:21.781Z,12.90
2022-10-05T11:19:20.569Z,9.30
2022-10-05T11:20:20.558Z,11.00
2022-10-05T11:21:20.548Z,9.50
2022-10-05T11:22:20.588Z,7.50
2022-10-05T11:23:20.577Z,10.40
2022-10-05T11:24:20.517Z,11.10
2022-10-05T11:25:20.512Z,8.40
2022-10-05T11:26:20.511Z,11.70
2022-10-05T11:28:20.565Z,7.90
2022-10-05T11:29:20.471Z,7.60
2022-10-05T11:30:20.459Z,10.40
2022-10-05T11:31:20.551Z,8.50
2022-10-05T11:32:20.435Z,14.50
2022-10-05T11:33:20.443Z,10.50
2022-10-05T11:34:20.418Z,8.90
2022-10-05T11:35:20.407Z,7.40
2022-10-05T11:36:20.399Z,16.50
2022-10-05T11:37:20.393Z,10.20
2022-10-05T11:38:20.379Z,9.80
2022-10-05T11:39:20.382Z,10.80
2022-10-05T11:40:20.531Z,8.60
2022-10-05T11:41:20.381Z,11.80
2022-10-05T11:42:20.336Z,9.90
2022-10-05T11:43:20.367Z,7.90
2022-10-05T11:44:20.330Z,11.30
2022-10-05T11:45:20.309Z,7.50
2022-10-05T11:46:20.347Z,9.30
2022-10-05T11:47:20.289Z,7.50
2022-10-05T11:48:20.281Z,9.30
2022-10-05T11:49:20.283Z,9.90
2022-10-05T11:50:20.261Z,11.60
2022-10-05T11:51:22.083Z,9.00
2022-10-05T11:52:20.246Z,7.50
2022-10-05T11:53:20.244Z,10.80
2022-10-05T11:54:20.232Z,8.80
2022-10-05T11:55:20.223Z,11.70
2022-10-05T11:56:20.255Z,14.60
2022-10-05T11:57:20.186Z,10.70
2022-10-05T11:58:20.178Z,8.40
2022-10-05T11:59:20.179Z,8.90
2022-10-05T12:00:20.174Z,10.70
2022-10-05T12:01:20.149Z,8.80
2022-10-05T12:02:20.136Z,10.90
2022-10-05T12:03:20.267Z,12.60
2022-10-05T12:04:20.209Z,10.70
2022-10-05T12:05:20.212Z,10.80
2022-10-05T12:06:20.102Z,11.90
2022-10-05T12:07:20.107Z,11.00
2022-10-05T12:08:20.079Z,13.80
2022-10-05T12:09:20.083Z,9.90
2022-10-05T12:10:20.061Z,20.20
2022-10-05T12:11:20.143Z,11.70
2022-10-05T12:12:20.042Z,12.90
2022-10-05T12:13:20.052Z,7.90
2022-10-05T12:14:20.034Z,9.10
2022-10-05T12:15:20.033Z,11.60
2022-10-05T12:16:20.118Z,14.50
2022-10-05T12:17:19.996Z,8.90
2022-10-05T12:18:19.981Z,9.00
2022-10-05T12:19:19.981Z,8.70
2022-10-05T12:20:19.958Z,8.50
2022-10-05T12:21:19.950Z,7.10
2022-10-05T12:22:19.936Z,11.10
2022-10-05T12:23:19.930Z,13.00
2022-10-05T12:24:24.578Z,8.60
2022-10-05T12:25:21.903Z,9.70
2022-10-05T12:26:20.901Z,12.30
2022-10-05T12:27:19.890Z,12.90
2022-10-05T12:28:19.905Z,10.40
2022-10-05T12:29:19.887Z,11.10
2022-10-05T12:30:19.857Z,10.80
2022-10-05T12:31:19.891Z,12.40
2022-10-05T12:32:19.866Z,10.40
2022-10-05T12:33:19.831Z,11.40
2022-10-05T12:34:19.833Z,26.50
2022-10-05T12:35:36.511Z,20.20
2022-10-05T12:36:21.805Z,14.70
2022-10-05T12:37:19.798Z,14.60
2022-10-05T12:38:19.784Z,13.10
2022-10-05T12:39:19.786Z,12.40
2022-10-05T12:40:19.768Z,10.40
2022-10-05T12:41:19.753Z,11.10
2022-10-05T12:42:19.739Z,11.90
2022-10-05T12:43:19.740Z,13.10
2022-10-05T12:44:19.785Z,15.00
2022-10-05T12:45:19.718Z,12.50
2022-10-05T12:46:19.706Z,17.30
2022-10-05T12:47:19.697Z,10.80
2022-10-05T12:48:19.687Z,12.70
2022-10-05T12:49:19.680Z,13.40
2022-10-05T12:50:19.664Z,17.20
2022-10-05T12:51:19.660Z,18.10
2022-10-05T12:52:19.643Z,11.90
2022-10-05T12:53:19.630Z,15.80
2022-10-05T12:54:19.642Z,11.60
2022-10-05T12:55:19.614Z,15.80